Hemavan Gierevarto, Sweden

9:51 PM CET on November 20, 2014 (GMT +0100)
Hemavan | Change Station
CLOSE
Current Station
Personal Weather Station
Location: Hemavan, HEMAVAN
Elevation: 1617 ft
Nearby Weather Stations

Elev 1617 ft 65.81 °N, 15.11 °E | Updated 1 minute ago

Overcast
Overcast
18.5 °F
Feels Like 18 °F
N
0.0
Wind Variable Wind from NW
Gusts 0.0 mph

Today
High -- | Low -- °F
--% Chance of Precip.
Yesterday
High -- | Low -- °F
Precip. -- in
9:02 AM 2:27 PM
Waning Crescent, 3% visible
Pressure 30.39 in
Visibility 6.2 miles
Clouds Mostly Cloudy 300 ft
Overcast 3400 ft
Windchill 18 °F
Dew Point 18 °F
Humidity 96%
Rainfall 0.00 in
Snow Depth Not available.
UV 0.0 out of 12
Pollen Not available.
Air Quality Not available.
Flu Activity Not available.
METAR ESUT 202020Z AUTO 00000KT 9999 BKN003/// OVC034/// M07/M08 Q1029

More Conditions Fewer Conditions

Pressure 30.39 in
Visibility 6.2 miles
Clouds Mostly Cloudy 300 ft
Overcast 3400 ft
Windchill 18 °F
Dew Point 18 °F
Humidity 96%
Rainfall 0.00 in
Snow Depth Not available.
UV 0.0 out of 12
Pollen Not available.
Air Quality Not available.
Flu Activity Not available.
METAR ESUT 202020Z AUTO 00000KT 9999 BKN003/// OVC034/// M07/M08 Q1029

More Conditions Fewer Conditions

10-Day Weather Forecast

Almanac

Astronomy

Nov. 20, 2014 Rise Set
Actual Time
Civil Twilight
Nautical Twilight
Astronomical Twilight
Moon
Length of Visible Light
Length of Day
Tomorrow will be .
, % of the Moon is Illuminated

Today's Extremes

Country Highs Country Lows

Community

WunderPhotos

Upload Photos

1,772,513 photos uploaded!

WunderBlogs® & News

Nearby

Air Quality

  Air Quality AQ Index Pollutant
Not available.

Snow Depth

Station Depth Elevation

Earthquake Activity

City Distance Mag. Time & Date
Minimum magnitude displayed is 2.5.

Coastal Water Temperatures

Place Temperature

Nearby Weather Stations